Time;durP1;ratioP1;P1;durP2;ratioP2;P2;SDS_P1;SDS_P2;PMS_P1;PMS_P2;Temp;Humidity;BMP_temperature;BMP_pressure;BME280_temperature;BME280_humidity;BME280_pressure;Samples;Min_cycle;Max_cycle;Signal;HPM_P1;HPM_P2
2023/03/27 00:03:04;;;;;;;13.00;9.10;;;;;;;7.41;80.68;97195.98;221318;1278;22563;-74
2023/03/27 00:08:08;;;;;;;19.20;11.10;;;;;;;7.40;80.81;97193.23;221203;1277;22572;-75
2023/03/27 00:13:10;;;;;;;17.30;11.80;;;;;;;7.40;80.69;97190.80;221219;1281;22526;-75
2023/03/27 00:18:14;;;;;;;23.90;14.40;;;;;;;7.40;80.85;97190.92;221033;1278;22528;-75
2023/03/27 00:23:18;;;;;;;23.40;14.40;;;;;;;7.41;81.29;97193.95;221178;1279;22539;-75
2023/03/27 00:28:21;;;;;;;29.90;17.60;;;;;;;7.42;81.29;97190.98;221175;1278;22584;-74
2023/03/27 00:33:24;;;;;;;28.00;18.20;;;;;;;7.45;81.27;97187.70;221133;1281;26490;-74
2023/03/27 00:38:28;;;;;;;26.60;18.40;;;;;;;7.46;81.07;97189.96;221048;1281;22543;-75
2023/03/27 00:43:36;;;;;;;21.40;15.10;;;;;;;7.48;81.67;97187.45;221006;1278;22541;-74
2023/03/27 00:48:38;;;;;;;22.00;15.40;;;;;;;7.47;81.50;97184.05;220996;1279;22529;-75
2023/03/27 00:53:52;;;;;;;21.60;14.70;;;;;;;7.47;81.42;97176.79;221151;1281;26527;-75
2023/03/27 00:59:07;;;;;;;22.80;14.30;;;;;;;7.44;81.36;97174.27;221079;1281;22527;-74
2023/03/27 01:04:09;;;;;;;21.60;15.10;;;;;;;7.42;81.62;97168.10;221082;1280;22556;-74
2023/03/27 01:09:12;;;;;;;21.90;15.10;;;;;;;7.41;81.47;97152.07;221062;1281;23377;-74
2023/03/27 01:14:46;;;;;;;24.60;15.40;;;;;;;7.42;81.44;97150.40;221192;1281;24120;-75
2023/03/27 01:20:24;;;;;;;25.90;16.70;;;;;;;7.41;81.85;97146.50;221127;1280;22076;-74
2023/03/27 01:25:59;;;;;;;22.90;16.00;;;;;;;7.40;81.78;97149.82;221263;1280;22646;-75
2023/03/27 01:31:50;;;;;;;18.40;12.20;;;;;;;7.39;81.45;97149.45;221276;1281;22704;-75
2023/03/27 01:37:29;;;;;;;16.10;12.20;;;;;;;7.36;81.80;97140.49;221260;1281;26385;-74
2023/03/27 01:43:10;;;;;;;19.00;12.00;;;;;;;7.34;81.98;97141.95;221307;1281;25281;-74
2023/03/27 01:48:24;;;;;;;13.80;11.10;;;;;;;7.32;82.09;97143.92;221027;1281;26401;-75
2023/03/27 01:53:45;;;;;;;15.00;10.10;;;;;;;7.29;82.04;97142.60;221032;1281;23120;-75
2023/03/27 01:58:54;;;;;;;14.90;9.70;;;;;;;7.26;82.18;97137.66;221170;1281;22663;-75
2023/03/27 02:04:01;;;;;;;13.50;9.10;;;;;;;7.24;82.55;97129.91;221109;1281;23230;-75
2023/03/27 02:09:22;;;;;;;11.00;8.80;;;;;;;7.23;82.02;97122.77;220825;1274;22521;-74
2023/03/27 02:14:33;;;;;;;13.50;9.20;;;;;;;7.24;82.20;97115.81;221150;1281;24295;-74
2023/03/27 02:19:55;;;;;;;15.90;10.00;;;;;;;7.22;82.17;97110.23;221108;1281;24868;-74
2023/03/27 02:25:00;;;;;;;;;;;;;;;7.22;82.35;97113.39;221184;1273;22738;-75
2023/03/27 02:30:16;;;;;;;11.60;8.40;;;;;;;7.21;82.54;97116.58;221128;1278;24237;-74
2023/03/27 02:35:28;;;;;;;16.10;9.30;;;;;;;7.20;82.59;97128.42;221166;1281;22631;-75
2023/03/27 02:40:46;;;;;;;12.10;9.70;;;;;;;7.20;82.41;97123.13;220917;1280;22541;-74
2023/03/27 02:46:32;;;;;;;14.40;10.00;;;;;;;7.21;82.30;97119.33;220779;1280;22479;-75
2023/03/27 02:51:46;;;;;;;14.20;9.40;;;;;;;7.22;82.52;97123.00;221166;1281;22532;-74
2023/03/27 02:57:00;;;;;;;15.80;10.50;;;;;;;7.23;82.45;97132.21;220970;1281;25287;-74
2023/03/27 03:02:24;;;;;;;13.10;8.50;;;;;;;7.23;82.55;97129.06;221056;1281;22595;-74
2023/03/27 03:07:42;;;;;;;12.30;8.10;;;;;;;7.23;82.62;97130.44;220801;1281;24284;-74
2023/03/27 03:12:55;;;;;;;;;;;;;;;;;;;;;
2023/03/27 03:18:04;;;;;;;10.80;8.20;;;;;;;7.22;82.91;97132.83;221303;1281;24290;-75
2023/03/27 03:23:07;;;;;;;11.60;8.30;;;;;;;7.24;82.47;97137.42;221098;1280;22496;-74
2023/03/27 03:28:10;;;;;;;12.70;7.80;;;;;;;7.25;82.34;97140.63;221165;1280;25480;-75
2023/03/27 03:33:18;;;;;;;10.20;7.10;;;;;;;7.26;81.98;97143.04;221181;1281;22528;-74
2023/03/27 03:38:37;;;;;;;11.00;6.80;;;;;;;7.25;82.01;97145.35;221114;1278;24366;-74
2023/03/27 03:43:46;;;;;;;8.10;5.80;;;;;;;7.23;82.15;97147.48;221109;1281;24340;-74
2023/03/27 03:48:51;;;;;;;8.90;6.10;;;;;;;7.15;82.02;97146.58;220962;1278;25429;-75
2023/03/27 03:54:08;;;;;;;;;;;;;;;7.06;82.41;97147.83;221175;1281;22910;-73
2023/03/27 03:59:17;;;;;;;10.10;7.30;;;;;;;6.99;82.06;97150.53;221147;1281;25416;-74
2023/03/27 04:04:41;;;;;;;10.40;8.40;;;;;;;6.94;82.48;97147.60;221173;1277;23476;-74
2023/03/27 04:10:00;;;;;;;;;;;;;;;6.91;82.46;97150.46;220875;1279;24193;-74
2023/03/27 04:15:25;;;;;;;11.70;9.30;;;;;;;6.87;82.50;97144.65;220999;1281;24237;-75
2023/03/27 04:21:13;;;;;;;12.60;9.20;;;;;;;6.83;82.74;97142.84;221051;1281;24382;-74
2023/03/27 04:26:16;;;;;;;14.70;10.40;;;;;;;6.81;82.70;97146.41;221290;1264;25461;-74
2023/03/27 04:31:48;;;;;;;13.90;9.90;;;;;;;6.81;82.87;97146.25;221163;1281;22640;-74
2023/03/27 04:37:21;;;;;;;14.60;10.20;;;;;;;6.80;82.81;97149.16;220723;1274;22542;-74
2023/03/27 04:42:44;;;;;;;12.10;9.30;;;;;;;6.80;82.88;97147.63;221130;1281;25094;-75
2023/03/27 04:48:03;;;;;;;13.90;9.90;;;;;;;6.78;83.03;97145.61;221226;1281;27217;-73
2023/03/27 04:53:19;;;;;;;13.20;10.10;;;;;;;6.79;82.83;97146.05;221148;1281;24230;-74
2023/03/27 04:58:33;;;;;;;14.20;9.90;;;;;;;6.80;82.94;97151.64;221035;1277;23213;-74
2023/03/27 05:03:48;;;;;;;15.90;9.60;;;;;;;6.80;83.10;97156.43;221095;1280;22534;-75
2023/03/27 05:09:00;;;;;;;13.00;9.80;;;;;;;6.80;83.10;97159.02;220963;1281;23783;-74
2023/03/27 05:14:08;;;;;;;11.80;9.30;;;;;;;6.82;83.14;97155.58;221038;1281;22544;-74
2023/03/27 05:19:12;;;;;;;12.60;9.80;;;;;;;6.85;82.98;97157.49;221145;1281;22558;-74
2023/03/27 05:24:18;;;;;;;14.10;9.90;;;;;;;6.87;82.90;97159.67;221067;1281;23581;-74
2023/03/27 05:29:22;;;;;;;14.10;9.90;;;;;;;6.88;83.04;97157.73;220975;1281;25367;-74
2023/03/27 05:34:33;;;;;;;14.00;10.40;;;;;;;6.92;83.44;97163.23;221250;1281;22530;-74
2023/03/27 05:39:40;;;;;;;14.60;10.90;;;;;;;6.96;83.21;97171.06;221183;1266;24371;-74
2023/03/27 05:44:55;;;;;;;15.80;11.60;;;;;;;7.01;82.99;97171.92;221424;1275;22609;-77
2023/03/27 05:50:08;;;;;;;15.00;11.40;;;;;;;7.05;83.07;97175.53;221533;1281;22565;-77
2023/03/27 05:55:22;;;;;;;15.40;12.40;;;;;;;7.07;83.17;97182.11;221267;1277;25125;-76
2023/03/27 06:00:40;;;;;;;20.50;14.00;;;;;;;7.09;83.15;97181.14;222131;1274;22575;-76
2023/03/27 06:05:59;;;;;;;20.40;13.50;;;;;;;7.15;83.00;97187.22;221656;1259;24306;-77
2023/03/27 06:11:14;;;;;;;16.20;13.90;;;;;;;7.21;82.96;97193.52;221298;1265;138646;-78
2023/03/27 06:16:34;;;;;;;16.90;13.00;;;;;;;7.29;82.93;97194.26;221710;1278;138788;-77
2023/03/27 06:21:46;;;;;;;16.00;13.00;;;;;;;7.36;83.03;97205.52;221281;1275;138617;-76
2023/03/27 06:26:58;;;;;;;14.30;12.40;;;;;;;7.42;82.14;97214.88;221380;1276;139292;-78
2023/03/27 06:32:25;;;;;;;15.50;10.80;;;;;;;7.49;82.19;97228.52;221010;1268;138607;-76
2023/03/27 06:37:35;;;;;;;13.50;10.80;;;;;;;7.55;82.38;97243.68;221301;1274;25357;-74
2023/03/27 06:42:56;;;;;;;12.20;9.40;;;;;;;7.62;82.37;97255.62;221300;1274;24119;-73
2023/03/27 06:48:33;;;;;;;12.30;10.00;;;;;;;7.68;81.78;97254.27;221227;1280;138495;-73
2023/03/27 06:53:55;;;;;;;11.20;9.50;;;;;;;7.71;81.71;97259.80;221312;1275;138595;-73
2023/03/27 06:59:01;;;;;;;13.70;11.60;;;;;;;7.74;81.40;97267.63;221064;1275;138383;-74
2023/03/27 07:04:15;;;;;;;16.30;12.70;;;;;;;7.76;81.42;97274.17;221328;1279;138677;-75
2023/03/27 07:09:41;;;;;;;14.40;12.90;;;;;;;7.78;81.52;97284.89;221221;1275;139184;-74
2023/03/27 07:15:26;;;;;;;17.40;13.60;;;;;;;7.81;81.33;97291.23;221217;1278;138632;-72
2023/03/27 07:21:14;;;;;;;;;;;;;;;;;;;;;
2023/03/27 07:26:28;;;;;;;17.00;13.40;;;;;;;7.75;80.95;97310.77;220859;1260;138970;-73
2023/03/27 07:32:06;;;;;;;14.70;12.20;;;;;;;7.66;80.69;97316.23;221153;1268;138763;-79
2023/03/27 07:37:32;;;;;;;14.10;11.60;;;;;;;7.56;80.60;97322.84;221302;1278;22533;-74
2023/03/27 07:43:47;;;;;;;11.70;10.50;;;;;;;7.39;80.57;97336.42;221066;1279;23090;-74
2023/03/27 07:49:29;;;;;;;12.40;10.80;;;;;;;7.25;80.66;97340.31;222683;1258;25113;-74
2023/03/27 07:55:17;;;;;;;15.20;12.60;;;;;;;7.10;80.87;97344.77;221635;1278;22559;-74
2023/03/27 08:01:20;;;;;;;19.30;13.50;;;;;;;6.91;80.63;97351.60;224249;1278;138540;-77
2023/03/27 08:07:20;;;;;;;21.80;16.70;;;;;;;6.70;80.40;97368.04;223131;1278;25228;-77
2023/03/27 08:13:25;;;;;;;22.00;17.00;;;;;;;6.54;80.76;97369.97;224552;1260;139241;-78
2023/03/27 08:18:59;;;;;;;21.00;16.50;;;;;;;6.34;80.95;97395.52;222096;1279;139458;-72
2023/03/27 08:24:35;;;;;;;18.20;13.50;;;;;;;6.06;81.27;97407.11;221156;1274;138780;-75
2023/03/27 08:30:40;;;;;;;12.20;9.30;;;;;;;5.75;81.02;97420.61;223170;1277;138947;-75
2023/03/27 08:36:18;;;;;;;14.70;9.90;;;;;;;5.28;81.11;97438.59;221862;1275;138775;-73
2023/03/27 08:41:53;;;;;;;12.70;8.10;;;;;;;4.91;81.93;97452.31;221809;1276;139102;-73
2023/03/27 08:47:24;;;;;;;13.20;8.80;;;;;;;4.57;81.94;97468.48;222170;1270;138978;-72
2023/03/27 08:52:57;;;;;;;17.00;12.80;;;;;;;4.25;81.98;97480.83;221825;1273;138572;-72
2023/03/27 08:58:23;;;;;;;21.00;15.40;;;;;;;4.01;82.26;97498.67;221765;1275;138741;-76
2023/03/27 09:03:50;;;;;;;15.20;10.90;;;;;;;3.81;82.50;97519.40;221724;1278;139719;-75
2023/03/27 09:09:54;;;;;;;9.10;7.90;;;;;;;3.55;82.16;97525.55;221740;1268;138737;-76
2023/03/27 09:16:03;;;;;;;7.90;5.50;;;;;;;3.25;81.97;97537.30;222085;1268;138268;-73
2023/03/27 09:21:43;;;;;;;7.80;5.70;;;;;;;3.08;82.18;97546.66;222166;1269;139402;-76
2023/03/27 09:26:53;;;;;;;5.60;4.60;;;;;;;2.96;82.23;97567.20;221708;1268;138862;-75
2023/03/27 09:33:18;;;;;;;3.20;2.80;;;;;;;2.82;82.01;97582.67;221787;1275;138837;-74
2023/03/27 09:38:44;;;;;;;2.90;2.70;;;;;;;2.48;81.83;97597.47;221898;1278;138293;-75
2023/03/27 09:44:10;;;;;;;5.20;2.00;;;;;;;2.30;81.38;97606.62;222009;1273;25053;-72
2023/03/27 09:49:28;;;;;;;2.80;2.50;;;;;;;2.11;80.84;97616.97;221605;1273;24238;-70
2023/03/27 09:55:01;;;;;;;3.60;2.80;;;;;;;1.95;81.11;97634.09;221680;1278;138840;-68
2023/03/27 10:00:32;;;;;;;4.80;2.80;;;;;;;1.83;81.40;97650.35;221705;1276;138207;-67
2023/03/27 10:05:38;;;;;;;4.40;3.00;;;;;;;1.83;81.62;97661.34;221605;1266;138610;-69
2023/03/27 10:10:54;;;;;;;4.00;3.10;;;;;;;1.81;81.90;97672.80;221653;1272;138597;-72
2023/03/27 10:16:38;;;;;;;3.70;3.40;;;;;;;1.77;81.49;97683.48;221764;1267;138361;-68
2023/03/27 10:21:46;;;;;;;4.40;3.70;;;;;;;1.72;81.64;97678.94;221760;1277;139084;-70
2023/03/27 10:27:12;;;;;;;6.20;4.10;;;;;;;1.66;81.76;97690.08;221823;1273;138240;-74
2023/03/27 10:32:48;;;;;;;5.30;4.40;;;;;;;1.66;82.01;97696.33;221539;1273;138290;-72
2023/03/27 10:38:21;;;;;;;5.20;4.00;;;;;;;1.67;81.90;97694.92;221573;1273;138304;-70
2023/03/27 10:43:45;;;;;;;4.50;4.00;;;;;;;1.71;81.81;97686.48;222753;1267;22540;-70
2023/03/27 10:50:06;;;;;;;;;;;;;;;;;;;;;
2023/03/27 10:55:35;;;;;;;5.00;3.50;;;;;;;1.88;80.90;97695.39;220425;1285;24258;-71
2023/03/27 11:01:10;;;;;;;6.70;4.20;;;;;;;2.00;80.80;97708.81;221600;1277;138262;-71
2023/03/27 11:06:37;;;;;;;;;;;;;;;2.13;80.40;97706.23;221512;1275;138590;-70
2023/03/27 11:12:03;;;;;;;6.40;4.40;;;;;;;2.36;80.06;97712.39;221609;1273;124955;-71
2023/03/27 11:17:22;;;;;;;5.30;3.90;;;;;;;2.60;79.82;97713.76;221742;1260;138898;-69
2023/03/27 11:23:23;;;;;;;4.60;3.80;;;;;;;2.73;79.02;97723.20;221893;1273;139021;-70
2023/03/27 11:29:02;;;;;;;5.60;4.20;;;;;;;2.73;78.89;97725.28;221806;1277;138772;-71
2023/03/27 11:34:24;;;;;;;5.30;3.30;;;;;;;2.78;79.01;97737.71;221578;1277;138735;-70
2023/03/27 11:40:11;;;;;;;5.90;4.00;;;;;;;2.79;77.96;97745.69;221628;1275;138760;-69
2023/03/27 11:45:20;;;;;;;4.70;3.50;;;;;;;2.83;77.76;97753.09;221671;1270;139165;-71
2023/03/27 11:50:52;;;;;;;9.20;3.90;;;;;;;2.87;77.48;97762.46;221474;1276;138582;-69
2023/03/27 11:56:36;;;;;;;14.40;3.10;;;;;;;2.90;77.36;97777.38;221577;1273;24262;-70
2023/03/27 12:02:59;;;;;;;;;;;;;;;;;;;;;
2023/03/27 12:08:50;;;;;;;19.30;5.30;;;;;;;2.95;76.07;97801.05;221624;1270;22578;-69
2023/03/27 12:14:49;;;;;;;5.00;2.20;;;;;;;2.90;75.61;97812.52;221734;1270;22533;-69
2023/03/27 12:20:36;;;;;;;2.90;2.10;;;;;;;2.89;75.21;97819.98;221714;1270;22538;-72
2023/03/27 12:26:49;;;;;;;3.20;1.80;;;;;;;2.87;74.49;97824.52;221687;1276;24282;-71
2023/03/27 12:32:43;;;;;;;2.40;1.80;;;;;;;2.90;73.68;97849.27;221367;1274;22544;-71
2023/03/27 12:37:52;;;;;;;3.30;1.90;;;;;;;2.96;73.35;97850.36;221780;1280;22543;-72
2023/03/27 12:43:13;;;;;;;2.20;2.00;;;;;;;2.95;72.89;97865.06;221777;1273;138185;-73
2023/03/27 12:49:16;;;;;;;;;;;;;;;;;;;;;
2023/03/27 12:55:51;;;;;;;2.90;2.40;;;;;;;2.78;73.05;97900.20;221633;1273;138456;-78
2023/03/27 13:01:40;;;;;;;4.40;2.70;;;;;;;2.71;73.83;97922.16;221423;1260;138382;-74
2023/03/27 13:07:49;;;;;;;4.90;3.10;;;;;;;2.68;74.22;97924.45;221764;1273;138474;-73
2023/03/27 13:14:03;;;;;;;4.50;2.50;;;;;;;2.71;74.51;97937.95;222457;1273;138093;-75
2023/03/27 13:20:05;;;;;;;3.00;2.70;;;;;;;2.75;73.56;97952.14;221861;1271;138725;-73
2023/03/27 13:26:34;;;;;;;2.90;2.40;;;;;;;2.73;73.33;97950.44;221720;1273;138130;-72
2023/03/27 13:32:41;;;;;;;2.80;1.70;;;;;;;2.86;72.25;97952.63;222446;1270;25422;-73
2023/03/27 13:38:21;;;;;;;2.60;1.80;;;;;;;3.09;71.38;97958.53;221552;1280;24257;-75
2023/03/27 13:43:52;;;;;;;4.40;1.80;;;;;;;3.20;70.29;97971.44;222486;1279;137998;-75
2023/03/27 13:50:16;;;;;;;3.00;1.90;;;;;;;3.24;69.40;97980.82;222712;1273;138213;-73
2023/03/27 13:56:43;;;;;;;;;;;;;;;;;;;;;
2023/03/27 14:02:25;;;;;;;2.50;2.10;;;;;;;3.28;68.56;98005.56;221647;1273;138468;-73
2023/03/27 14:08:14;;;;;;;3.40;2.10;;;;;;;3.33;68.54;98015.38;221953;1277;24389;-73
2023/03/27 14:14:18;;;;;;;3.90;2.20;;;;;;;3.39;67.83;98013.95;221432;1278;22623;-73
2023/03/27 14:19:56;;;;;;;2.20;2.00;;;;;;;3.47;67.58;98034.52;221326;1279;24234;-72
2023/03/27 14:25:41;;;;;;;2.90;1.60;;;;;;;3.50;66.81;98050.23;221395;1280;22549;-73
2023/03/27 14:31:00;;;;;;;3.60;1.60;;;;;;;3.52;66.21;98065.15;221257;1280;22552;-73
2023/03/27 14:36:32;;;;;;;2.30;1.40;;;;;;;3.53;65.00;98071.38;221409;1280;23166;-73
2023/03/27 14:42:00;;;;;;;2.60;1.30;;;;;;;3.50;65.06;98082.41;221117;1280;22530;-72
2023/03/27 14:47:10;;;;;;;2.50;1.60;;;;;;;3.47;64.87;98089.35;221009;1280;22555;-72
2023/03/27 14:52:31;;;;;;;1.80;1.40;;;;;;;3.47;64.22;98093.49;221037;1280;24266;-71
2023/03/27 14:58:07;;;;;;;3.40;1.90;;;;;;;3.53;63.85;98098.67;221094;1280;22646;-72
2023/03/27 15:03:20;;;;;;;2.70;1.60;;;;;;;3.64;64.17;98119.77;221252;1277;22645;-72
2023/03/27 15:08:38;;;;;;;1.70;1.20;;;;;;;3.67;63.50;98128.93;221158;1280;22559;-72
2023/03/27 15:14:29;;;;;;;2.30;1.40;;;;;;;3.58;62.54;98138.17;221041;1280;25412;-73
2023/03/27 15:19:44;;;;;;;2.20;1.50;;;;;;;3.47;61.88;98149.80;221315;1280;24298;-72
2023/03/27 15:25:01;;;;;;;3.00;1.70;;;;;;;3.41;62.04;98168.52;221094;1280;23768;-73
2023/03/27 15:30:22;;;;;;;2.30;1.60;;;;;;;3.47;62.52;98170.30;221151;1280;22495;-73
2023/03/27 15:35:37;;;;;;;2.60;1.70;;;;;;;3.55;62.70;98178.55;221484;1280;22582;-73
2023/03/27 15:40:57;;;;;;;3.60;1.70;;;;;;;3.57;62.64;98187.36;221397;1279;22593;-73
2023/03/27 15:46:21;;;;;;;2.60;1.70;;;;;;;3.61;62.57;98193.09;221130;1280;22550;-73
2023/03/27 15:51:34;;;;;;;2.70;1.50;;;;;;;3.65;62.36;98196.80;221406;1274;22605;-74
2023/03/27 15:56:46;;;;;;;1.70;1.40;;;;;;;3.60;62.36;98195.50;221307;1280;25471;-74
2023/03/27 16:02:10;;;;;;;2.20;1.80;;;;;;;3.46;62.13;98204.05;221118;1264;22555;-73
2023/03/27 16:07:48;;;;;;;2.60;1.80;;;;;;;3.34;62.86;98203.18;221222;1280;24400;-74
2023/03/27 16:13:34;;;;;;;3.20;1.80;;;;;;;3.29;62.81;98209.64;220803;1283;22589;-73
2023/03/27 16:18:43;;;;;;;3.00;1.80;;;;;;;3.29;62.41;98216.72;220830;1283;24110;-71
2023/03/27 16:23:48;;;;;;;2.80;1.70;;;;;;;3.34;62.90;98222.04;220783;1283;22563;-72
2023/03/27 16:28:56;;;;;;;2.50;1.80;;;;;;;3.34;63.34;98229.29;220692;1273;24755;-72
2023/03/27 16:33:59;;;;;;;1.90;1.20;;;;;;;3.33;62.76;98236.04;220673;1281;25246;-73
2023/03/27 16:39:03;;;;;;;1.70;1.40;;;;;;;3.25;61.98;98242.88;220647;1283;22538;-72
2023/03/27 16:44:08;;;;;;;3.00;1.80;;;;;;;3.17;62.46;98254.97;221102;1280;22523;-73
2023/03/27 16:49:11;;;;;;;3.30;1.90;;;;;;;3.09;62.49;98266.93;221104;1280;22639;-73
2023/03/27 16:54:14;;;;;;;1.90;1.40;;;;;;;2.97;62.17;98266.30;221216;1280;22548;-73
2023/03/27 16:59:21;;;;;;;1.90;1.40;;;;;;;2.85;61.85;98275.42;221195;1280;22758;-72
2023/03/27 17:04:24;;;;;;;2.30;1.50;;;;;;;2.74;62.28;98283.48;221180;1280;22618;-73
2023/03/27 17:09:31;;;;;;;3.10;1.90;;;;;;;2.59;62.43;98290.27;221243;1280;25368;-72
2023/03/27 17:14:39;;;;;;;4.20;1.80;;;;;;;2.41;62.84;98298.25;221324;1280;24138;-73
2023/03/27 17:19:44;;;;;;;3.70;1.90;;;;;;;2.22;63.38;98305.63;221192;1275;22526;-73
2023/03/27 17:24:51;;;;;;;5.70;2.70;;;;;;;2.07;63.79;98313.35;221211;1265;22694;-72
2023/03/27 17:29:59;;;;;;;3.00;2.10;;;;;;;1.93;64.11;98319.38;221263;1280;24313;-73
2023/03/27 17:35:04;;;;;;;3.30;2.00;;;;;;;1.80;64.15;98320.42;221343;1280;22533;-73
2023/03/27 17:40:14;;;;;;;2.90;1.90;;;;;;;1.68;64.35;98327.63;221407;1277;22526;-73
2023/03/27 17:45:17;;;;;;;4.30;2.40;;;;;;;1.58;64.79;98335.04;221172;1278;25404;-73
2023/03/27 17:50:19;;;;;;;4.40;2.60;;;;;;;1.49;65.05;98340.58;220956;1279;22615;-73
2023/03/27 17:55:22;;;;;;;5.60;2.80;;;;;;;1.38;65.25;98351.88;221126;1279;22556;-71
2023/03/27 18:00:24;;;;;;;6.10;2.90;;;;;;;1.29;65.46;98364.54;220904;1280;22558;-72
2023/03/27 18:05:27;;;;;;;5.70;3.10;;;;;;;1.23;65.64;98372.27;221205;1279;22526;-72
2023/03/27 18:10:32;;;;;;;6.20;3.20;;;;;;;1.18;65.69;98379.52;221223;1277;24293;-72
2023/03/27 18:15:39;;;;;;;4.30;2.80;;;;;;;1.11;66.31;98386.49;221129;1280;26373;-71
2023/03/27 18:20:49;;;;;;;5.70;3.60;;;;;;;1.09;66.27;98393.85;221062;1280;22544;-73
2023/03/27 18:25:52;;;;;;;4.70;2.90;;;;;;;1.05;66.35;98400.18;221109;1280;22626;-73
2023/03/27 18:31:06;;;;;;;5.70;3.00;;;;;;;1.03;66.04;98410.67;221289;1279;22534;-71
2023/03/27 18:36:14;;;;;;;5.20;3.10;;;;;;;1.00;66.25;98408.30;221092;1280;24748;-72
2023/03/27 18:41:21;;;;;;;4.80;3.30;;;;;;;0.97;66.26;98419.52;221526;1276;25286;-72
2023/03/27 18:46:27;;;;;;;5.10;3.10;;;;;;;0.91;66.16;98415.34;221307;1280;22534;-72
2023/03/27 18:51:36;;;;;;;4.60;3.30;;;;;;;0.86;66.10;98424.80;221205;1279;22582;-71
2023/03/27 18:56:47;;;;;;;5.20;3.60;;;;;;;0.81;65.55;98430.98;221416;1280;22887;-72
2023/03/27 19:01:50;;;;;;;5.70;3.60;;;;;;;0.76;65.98;98433.00;221235;1280;22550;-72
2023/03/27 19:06:58;;;;;;;5.00;2.90;;;;;;;0.70;65.84;98437.64;221373;1275;24264;-71
2023/03/27 19:12:01;;;;;;;5.90;3.60;;;;;;;0.65;65.97;98444.52;221357;1280;24187;-73
2023/03/27 19:17:31;;;;;;;5.70;3.40;;;;;;;0.62;65.85;98449.45;221416;1280;23347;-72
2023/03/27 19:22:52;;;;;;;5.50;3.00;;;;;;;0.57;65.73;98454.75;221268;1278;22757;-73
2023/03/27 19:28:06;;;;;;;6.00;3.20;;;;;;;0.52;65.69;98455.39;221152;1280;24456;-71
2023/03/27 19:33:13;;;;;;;6.30;2.90;;;;;;;0.49;65.84;98456.30;220942;1280;22529;-71
2023/03/27 19:38:16;;;;;;;4.70;2.60;;;;;;;0.46;65.48;98457.30;221218;1280;25365;-72
2023/03/27 19:43:20;;;;;;;5.90;2.60;;;;;;;0.43;65.43;98461.58;221280;1278;23940;-72
2023/03/27 19:48:23;;;;;;;6.20;3.20;;;;;;;0.41;65.43;98460.83;221009;1280;24290;-72
2023/03/27 19:53:27;;;;;;;3.80;2.50;;;;;;;0.40;65.23;98464.42;220958;1278;25537;-72
2023/03/27 19:58:30;;;;;;;4.50;2.20;;;;;;;0.35;65.20;98467.05;221223;1279;22541;-72
2023/03/27 20:03:36;;;;;;;5.20;2.80;;;;;;;0.30;65.17;98468.38;221143;1280;22681;-72
2023/03/27 20:08:40;;;;;;;7.10;3.20;;;;;;;0.26;64.89;98469.59;221177;1280;22540;-72
2023/03/27 20:13:53;;;;;;;6.10;3.30;;;;;;;0.20;65.12;98470.39;221155;1280;22529;-71
2023/03/27 20:19:04;;;;;;;4.50;3.50;;;;;;;0.14;65.21;98463.51;221252;1280;22583;-72
2023/03/27 20:24:09;;;;;;;6.40;4.00;;;;;;;0.08;65.35;98470.40;221062;1279;22537;-72
2023/03/27 20:29:17;;;;;;;6.70;3.90;;;;;;;0.02;65.61;98474.19;221338;1275;22529;-72
2023/03/27 20:34:20;;;;;;;6.30;3.70;;;;;;;-0.02;65.15;98472.84;221314;1278;22544;-73
2023/03/27 20:39:27;;;;;;;6.80;3.80;;;;;;;-0.06;65.68;98471.21;221213;1275;25253;-72
2023/03/27 20:44:35;;;;;;;6.70;3.40;;;;;;;-0.11;65.45;98474.47;221120;1280;25291;-70
2023/03/27 20:49:41;;;;;;;7.20;3.80;;;;;;;-0.19;65.47;98472.32;221206;1280;23330;-72
2023/03/27 20:54:46;;;;;;;9.90;4.60;;;;;;;-0.25;65.54;98472.84;221089;1279;22539;-72
2023/03/27 20:59:57;;;;;;;10.00;4.10;;;;;;;-0.33;65.84;98467.99;221255;1280;25519;-71
2023/03/27 21:05:01;;;;;;;8.50;4.30;;;;;;;-0.41;65.72;98471.58;221367;1278;23028;-72
2023/03/27 21:10:10;;;;;;;9.20;4.00;;;;;;;-0.48;65.97;98471.85;221770;1280;22914;-72
2023/03/27 21:15:14;;;;;;;9.60;4.20;;;;;;;-0.55;66.10;98467.06;221408;1280;25458;-72
2023/03/27 21:20:17;;;;;;;7.20;4.00;;;;;;;-0.60;66.07;98474.23;221202;1270;22533;-71
2023/03/27 21:25:21;;;;;;;6.70;3.90;;;;;;;-0.66;66.47;98475.56;220639;1280;22540;-72
2023/03/27 21:30:28;;;;;;;7.80;4.40;;;;;;;-0.71;66.43;98477.87;221125;1280;22599;-73
2023/03/27 21:36:11;;;;;;;9.70;4.90;;;;;;;-0.76;66.40;98479.15;221208;1280;22599;-72
2023/03/27 21:41:20;;;;;;;9.40;4.90;;;;;;;-0.83;66.44;98475.42;220949;1280;23127;-71
2023/03/27 21:46:27;;;;;;;11.90;6.20;;;;;;;-0.91;66.65;98477.60;221144;1280;22517;-71
2023/03/27 21:51:36;;;;;;;14.50;7.20;;;;;;;-1.00;67.25;98475.89;220971;1280;22669;-72
2023/03/27 21:56:38;;;;;;;15.00;7.80;;;;;;;-1.11;67.44;98474.70;221305;1278;23949;-71
2023/03/27 22:01:43;;;;;;;15.00;8.10;;;;;;;-1.22;67.41;98472.47;221209;1278;24265;-72
2023/03/27 22:06:50;;;;;;;17.10;8.40;;;;;;;-1.33;67.65;98480.77;221380;1279;23713;-71
2023/03/27 22:12:00;;;;;;;13.80;7.80;;;;;;;-1.44;68.29;98483.73;221428;1278;24288;-72
2023/03/27 22:17:02;;;;;;;14.20;7.70;;;;;;;-1.56;68.54;98480.41;221170;1280;26484;-71
2023/03/27 22:22:05;;;;;;;16.20;8.00;;;;;;;-1.68;68.75;98481.86;221168;1278;162059;-72
2023/03/27 22:27:07;;;;;;;14.60;8.50;;;;;;;-1.78;69.06;98489.16;221190;1278;22607;-71
2023/03/27 22:32:10;;;;;;;8.50;5.50;;;;;;;-1.88;69.58;98493.02;221160;1275;25488;-72
2023/03/27 22:37:24;;;;;;;9.60;5.40;;;;;;;-1.97;69.53;98492.01;221108;1280;25437;-71
2023/03/27 22:42:31;;;;;;;10.50;5.90;;;;;;;-2.05;69.66;98494.15;221047;1279;25574;-71
2023/03/27 22:47:44;;;;;;;9.30;6.00;;;;;;;-2.13;70.01;98497.33;221278;1278;24820;-72
2023/03/27 22:52:47;;;;;;;10.40;5.10;;;;;;;-2.20;70.45;98500.45;221305;1277;24222;-71
2023/03/27 22:57:50;;;;;;;13.70;7.50;;;;;;;-2.25;70.70;98504.81;221048;1280;25561;-71
2023/03/27 23:02:56;;;;;;;14.20;7.00;;;;;;;-2.27;70.68;98506.58;221001;1280;22528;-72
2023/03/27 23:08:02;;;;;;;15.30;7.90;;;;;;;-2.28;71.11;98509.71;221115;1280;25548;-72
2023/03/27 23:13:09;;;;;;;15.90;7.90;;;;;;;-2.27;71.27;98507.89;221194;1280;22524;-71
2023/03/27 23:18:11;;;;;;;12.90;7.50;;;;;;;-2.26;71.29;98506.81;221070;1280;22656;-71
2023/03/27 23:23:18;;;;;;;15.60;8.20;;;;;;;-2.27;71.25;98508.79;221082;1280;22692;-72
2023/03/27 23:28:22;;;;;;;12.60;7.40;;;;;;;-2.29;71.61;98515.98;221213;1269;22528;-70
2023/03/27 23:33:25;;;;;;;12.50;7.20;;;;;;;-2.33;71.61;98521.80;221047;1276;25529;-70
2023/03/27 23:38:44;;;;;;;16.10;8.00;;;;;;;-2.38;71.85;98525.79;221246;1280;22591;-72
2023/03/27 23:43:50;;;;;;;12.80;7.30;;;;;;;-2.43;71.72;98524.28;221120;1278;22591;-71
2023/03/27 23:49:05;;;;;;;16.30;7.90;;;;;;;-2.46;72.19;98524.72;221029;1280;25599;-69
2023/03/27 23:54:14;;;;;;;15.30;7.80;;;;;;;-2.52;72.18;98522.14;221165;1268;25243;-71
2023/03/27 23:59:34;;;;;;;14.10;7.40;;;;;;;-2.56;72.61;98526.13;220755;1281;24041;-71
